createdAt,value
2022-11-25T00:00:02.790Z,9.279905
2022-11-25T00:01:02.783Z,9.279952
2022-11-25T00:02:02.752Z,9.279851
2022-11-25T00:03:02.761Z,9.279969
2022-11-25T00:04:02.698Z,9.279912
2022-11-25T00:05:02.777Z,9.279867
2022-11-25T00:06:02.709Z,9.279939
2022-11-25T00:07:02.739Z,9.279915
2022-11-25T00:08:02.630Z,9.279956
2022-11-25T00:09:02.610Z,9.280058
2022-11-25T00:10:02.594Z,9.280000
2022-11-25T00:11:02.599Z,9.279984
2022-11-25T00:12:02.554Z,9.279959
2022-11-25T00:13:02.537Z,9.279936
2022-11-25T00:14:02.554Z,9.279967
2022-11-25T00:15:02.497Z,9.279891
2022-11-25T00:16:02.543Z,9.279923
2022-11-25T00:17:02.509Z,9.279986
2022-11-25T00:18:02.443Z,9.279965
2022-11-25T00:19:02.432Z,9.279995
2022-11-25T00:20:02.410Z,9.279931
2022-11-25T00:21:02.416Z,9.279903
2022-11-25T00:22:02.374Z,9.279971
2022-11-25T00:23:02.357Z,9.279942
2022-11-25T00:24:02.324Z,9.279984
2022-11-25T00:25:02.308Z,9.279961
2022-11-25T00:26:02.319Z,9.279940
2022-11-25T00:27:02.269Z,9.280092
2022-11-25T00:28:02.255Z,9.279995
2022-11-25T00:29:02.241Z,9.280006
2022-11-25T00:30:02.225Z,9.280122
2022-11-25T00:31:02.224Z,9.280089
2022-11-25T00:32:02.220Z,9.280153
2022-11-25T00:33:02.157Z,9.280058
2022-11-25T00:34:02.163Z,9.280004
2022-11-25T00:35:02.121Z,9.280020
2022-11-25T00:36:02.150Z,9.280065
2022-11-25T00:37:02.086Z,9.279999
2022-11-25T00:38:02.073Z,9.279969
2022-11-25T00:39:02.050Z,9.279977
2022-11-25T00:40:02.058Z,9.280064
2022-11-25T00:41:02.033Z,9.280042
2022-11-25T00:42:01.994Z,9.280033
2022-11-25T00:43:01.972Z,9.280051
2022-11-25T00:44:01.959Z,9.280045
2022-11-25T00:45:01.955Z,9.280090
2022-11-25T00:46:01.990Z,9.280026
2022-11-25T00:47:01.924Z,9.279973
2022-11-25T00:48:01.880Z,9.279886
2022-11-25T00:49:01.880Z,9.279930
2022-11-25T00:50:01.848Z,9.279950
2022-11-25T00:51:01.864Z,9.279856
2022-11-25T00:52:01.811Z,9.279892
2022-11-25T00:53:01.802Z,9.279890
2022-11-25T00:54:01.801Z,9.279967
2022-11-25T00:55:01.753Z,9.279870
2022-11-25T00:56:01.761Z,9.279930
2022-11-25T00:57:01.763Z,9.280006
2022-11-25T00:58:01.698Z,9.280046
2022-11-25T00:59:01.686Z,9.280048
2022-11-25T01:00:01.672Z,9.279979
2022-11-25T01:01:01.740Z,9.280089
2022-11-25T01:02:01.737Z,9.280025
2022-11-25T01:03:01.607Z,9.279943
2022-11-25T01:04:01.587Z,9.279907
2022-11-25T01:05:01.569Z,9.279946
2022-11-25T01:06:01.574Z,9.280041
2022-11-25T01:07:01.537Z,9.280038
2022-11-25T01:08:01.516Z,9.280000
2022-11-25T01:09:01.497Z,9.280117
2022-11-25T01:10:01.480Z,9.280029
2022-11-25T01:11:01.487Z,9.280019
2022-11-25T01:12:01.455Z,9.279970
2022-11-25T01:13:01.432Z,9.280017
2022-11-25T01:14:01.985Z,9.279948
2022-11-25T01:15:02.412Z,9.279958
2022-11-25T01:16:01.455Z,9.279952
2022-11-25T01:17:01.353Z,9.279976
2022-11-25T01:18:01.337Z,9.279957
2022-11-25T01:19:01.312Z,9.279949
2022-11-25T01:20:01.293Z,9.279923
2022-11-25T01:21:01.304Z,9.279900
2022-11-25T01:22:01.260Z,9.279921
2022-11-25T01:23:01.243Z,9.279874
2022-11-25T01:24:01.240Z,9.279931
2022-11-25T01:25:01.210Z,9.279831
2022-11-25T01:26:01.207Z,9.279865
2022-11-25T01:27:01.162Z,9.279976
2022-11-25T01:28:01.156Z,9.280094
2022-11-25T01:29:01.129Z,9.279934
2022-11-25T01:30:01.110Z,9.279881
2022-11-25T01:31:01.115Z,9.280031
2022-11-25T01:32:01.196Z,9.279855
2022-11-25T01:33:01.053Z,9.279814
2022-11-25T01:34:01.034Z,9.279905
2022-11-25T01:35:01.043Z,9.279940
2022-11-25T01:36:00.999Z,9.280014
2022-11-25T01:37:00.976Z,9.279983
2022-11-25T01:38:00.962Z,9.280058
2022-11-25T01:39:00.944Z,9.280071
2022-11-25T01:40:00.946Z,9.280094
2022-11-25T01:41:00.942Z,9.279906
2022-11-25T01:42:00.888Z,9.280042
2022-11-25T01:43:00.871Z,9.280121
2022-11-25T01:44:00.852Z,9.279978
2022-11-25T01:45:00.828Z,9.280025
2022-11-25T01:46:00.866Z,9.280167
2022-11-25T01:47:00.798Z,9.279951
2022-11-25T01:48:00.773Z,9.279808
2022-11-25T01:49:00.755Z,9.279897
2022-11-25T01:50:00.752Z,9.279965
2022-11-25T01:51:00.758Z,9.280035
2022-11-25T01:52:00.702Z,9.280087
2022-11-25T01:53:00.688Z,9.279918
2022-11-25T01:54:00.665Z,9.279860
2022-11-25T01:55:00.647Z,9.279890
2022-11-25T01:56:00.657Z,9.279787
2022-11-25T01:57:00.610Z,9.279853
2022-11-25T01:58:00.587Z,9.279939
2022-11-25T01:59:00.576Z,9.279936
2022-11-25T02:00:00.554Z,9.279821
2022-11-25T02:01:00.606Z,9.279905
2022-11-25T02:02:00.613Z,9.279884
2022-11-25T02:03:00.504Z,9.279932
2022-11-25T02:04:00.478Z,9.279897
2022-11-25T02:05:00.461Z,9.279902
2022-11-25T02:06:00.470Z,9.279996
2022-11-25T02:07:00.423Z,9.279869
2022-11-25T02:08:00.408Z,9.279823
2022-11-25T02:09:00.392Z,9.279938
2022-11-25T02:10:00.371Z,9.279986
2022-11-25T02:11:00.386Z,9.279840
2022-11-25T02:12:00.330Z,9.279902
2022-11-25T02:13:00.327Z,9.279980
2022-11-25T02:14:00.292Z,9.279920
2022-11-25T02:15:00.273Z,9.279890
2022-11-25T02:16:00.280Z,9.279940
2022-11-25T02:17:00.302Z,9.279971
2022-11-25T02:18:00.217Z,9.279973
2022-11-25T02:19:00.196Z,9.279818
2022-11-25T02:20:00.188Z,9.279752
2022-11-25T02:21:00.182Z,9.279742
2022-11-25T02:22:00.136Z,9.279770
2022-11-25T02:23:00.124Z,9.279848
2022-11-25T02:24:00.104Z,9.279890
2022-11-25T02:25:00.090Z,9.279913
2022-11-25T02:26:00.092Z,9.279934
2022-11-25T02:27:00.036Z,9.279880
2022-11-25T02:28:00.027Z,9.279969
2022-11-25T02:29:00.001Z,9.279975
2022-11-25T02:29:59.985Z,9.279910
2022-11-25T02:31:00.059Z,9.279901
2022-11-25T02:32:00.007Z,9.279993
2022-11-25T02:32:59.936Z,9.279960
2022-11-25T02:33:59.908Z,9.279964
2022-11-25T02:34:59.896Z,9.280013
2022-11-25T02:35:59.897Z,9.280012
2022-11-25T02:36:59.855Z,9.279999
2022-11-25T02:37:59.831Z,9.280094
2022-11-25T02:38:59.819Z,9.280151
2022-11-25T02:39:59.793Z,9.280105
2022-11-25T02:40:59.806Z,9.280013
2022-11-25T02:41:59.759Z,9.280008
2022-11-25T02:42:59.742Z,9.280056
2022-11-25T02:43:59.736Z,9.279858
2022-11-25T02:44:59.707Z,9.279988
2022-11-25T02:45:59.809Z,9.279897
2022-11-25T02:46:59.673Z,9.280001
2022-11-25T02:47:59.671Z,9.280061
2022-11-25T02:49:15.021Z,9.279937
2022-11-25T02:50:01.617Z,9.280004
2022-11-25T02:50:59.647Z,9.280009
2022-11-25T02:51:59.600Z,9.279949
2022-11-25T02:52:59.593Z,9.279868
2022-11-25T02:53:59.543Z,9.279901
2022-11-25T02:54:59.521Z,9.279930
2022-11-25T02:55:59.499Z,9.279953
2022-11-25T02:56:59.507Z,9.279878
2022-11-25T02:57:59.466Z,9.279936
2022-11-25T02:58:59.496Z,9.279920
2022-11-25T02:59:59.429Z,9.279876
2022-11-25T03:00:59.442Z,9.279925
2022-11-25T03:01:59.458Z,9.279819
2022-11-25T03:02:59.372Z,9.279887
2022-11-25T03:03:59.357Z,9.279869
2022-11-25T03:04:59.332Z,9.279899
2022-11-25T03:05:59.316Z,9.279902
2022-11-25T03:06:59.323Z,9.279913
2022-11-25T03:07:59.276Z,9.279974
2022-11-25T03:08:59.260Z,9.279969
2022-11-25T03:09:59.251Z,9.279929
2022-11-25T03:10:59.223Z,9.279993
2022-11-25T03:11:59.229Z,9.279960
2022-11-25T03:12:59.190Z,9.279890
2022-11-25T03:13:59.169Z,9.279848
2022-11-25T03:14:59.153Z,9.279890
2022-11-25T03:15:59.140Z,9.279920
2022-11-25T03:16:59.168Z,9.279882
2022-11-25T03:17:59.091Z,9.279819
2022-11-25T03:18:59.075Z,9.279878
2022-11-25T03:19:59.054Z,9.279861
2022-11-25T03:20:59.038Z,9.279889
2022-11-25T03:21:59.041Z,9.279921
2022-11-25T03:22:58.998Z,9.279871
2022-11-25T03:23:58.977Z,9.279910
2022-11-25T03:24:58.959Z,9.279864
2022-11-25T03:25:58.946Z,9.279810
2022-11-25T03:26:58.951Z,9.279804
2022-11-25T03:27:58.901Z,9.279790
2022-11-25T03:28:58.893Z,9.279848
2022-11-25T03:29:58.863Z,9.279865
2022-11-25T03:30:58.846Z,9.279955
2022-11-25T03:31:58.898Z,9.279995
2022-11-25T03:32:58.806Z,9.279903
2022-11-25T03:33:58.783Z,9.279864
2022-11-25T03:34:58.768Z,9.279858
2022-11-25T03:35:58.749Z,9.279946
2022-11-25T03:36:58.789Z,9.279952
2022-11-25T03:37:58.708Z,9.279763
2022-11-25T03:38:58.696Z,9.279840
2022-11-25T03:39:58.684Z,9.279873
2022-11-25T03:40:58.648Z,9.279877
2022-11-25T03:41:58.663Z,9.279973
2022-11-25T03:42:58.614Z,9.279902
2022-11-25T03:43:58.604Z,9.279983
2022-11-25T03:44:58.577Z,9.279924
2022-11-25T03:45:58.638Z,9.279764
2022-11-25T03:46:58.569Z,9.279855
2022-11-25T03:47:58.521Z,9.279874
2022-11-25T03:48:58.520Z,9.279900
2022-11-25T03:49:58.496Z,9.279812
2022-11-25T03:50:58.464Z,9.279907
2022-11-25T03:51:58.506Z,9.279963
2022-11-25T03:52:58.431Z,9.279896
2022-11-25T03:53:58.418Z,9.279880
2022-11-25T03:54:58.423Z,9.279781
2022-11-25T03:55:58.385Z,9.279876
2022-11-25T03:56:58.388Z,9.279762
2022-11-25T03:57:58.334Z,9.279881
2022-11-25T03:58:58.349Z,9.279825
2022-11-25T03:59:58.300Z,9.279880
2022-11-25T04:00:58.334Z,9.279889
2022-11-25T04:01:58.340Z,9.279784
2022-11-25T04:02:58.245Z,9.279870
2022-11-25T04:03:58.228Z,9.279883
2022-11-25T04:04:58.224Z,9.279888
2022-11-25T04:05:58.193Z,9.279924
2022-11-25T04:06:58.197Z,9.279869
2022-11-25T04:07:58.407Z,9.279989
2022-11-25T04:08:59.148Z,9.279769
2022-11-25T04:09:58.125Z,9.279853
2022-11-25T04:10:58.096Z,9.279885
2022-11-25T04:11:58.119Z,9.279920
2022-11-25T04:12:58.055Z,9.279893
2022-11-25T04:13:58.038Z,9.279940
2022-11-25T04:14:58.019Z,9.280104
2022-11-25T04:15:58.000Z,9.280040
2022-11-25T04:16:58.040Z,9.280026
2022-11-25T04:17:57.975Z,9.279895
2022-11-25T04:18:57.946Z,9.279769
2022-11-25T04:19:57.919Z,9.279835
2022-11-25T04:20:57.904Z,9.279887
2022-11-25T04:21:57.913Z,9.279848
2022-11-25T04:22:57.880Z,9.279937
2022-11-25T04:23:57.846Z,9.279934
2022-11-25T04:24:57.832Z,9.279939
2022-11-25T04:25:57.812Z,9.279943
2022-11-25T04:26:57.831Z,9.279949
2022-11-25T04:27:57.776Z,9.279976
2022-11-25T04:28:57.760Z,9.279931
2022-11-25T04:29:57.738Z,9.279946
2022-11-25T04:30:57.752Z,9.279950
2022-11-25T04:31:57.723Z,9.279890
2022-11-25T04:32:57.684Z,9.279900
2022-11-25T04:33:57.654Z,9.279933
2022-11-25T04:34:57.639Z,9.279974
2022-11-25T04:35:57.620Z,9.280068
2022-11-25T04:36:57.720Z,9.280029
2022-11-25T04:37:57.591Z,9.279996
2022-11-25T04:38:57.561Z,9.279998
2022-11-25T04:39:57.541Z,9.279868
2022-11-25T04:40:57.524Z,9.279954
2022-11-25T04:41:57.530Z,9.279943
2022-11-25T04:43:03.435Z,9.279936
2022-11-25T04:43:59.462Z,9.279913
2022-11-25T04:45:21.553Z,9.279980
2022-11-25T04:46:13.536Z,9.279932
2022-11-25T04:46:59.509Z,9.279962
2022-11-25T04:47:57.385Z,9.279945
2022-11-25T04:48:57.375Z,9.279925
2022-11-25T04:49:57.355Z,9.279927
2022-11-25T04:50:57.346Z,9.279846
2022-11-25T04:51:57.341Z,9.279866
2022-11-25T04:52:57.302Z,9.279737
2022-11-25T04:53:57.285Z,9.279758
2022-11-25T04:54:57.274Z,9.279898
2022-11-25T04:55:57.238Z,9.279821
2022-11-25T04:56:57.244Z,9.279799
2022-11-25T04:57:57.205Z,9.280010
2022-11-25T04:58:57.183Z,9.280009
2022-11-25T04:59:57.166Z,9.279911
2022-11-25T05:00:57.191Z,9.279967
2022-11-25T05:01:57.223Z,9.279869
2022-11-25T05:02:57.114Z,9.279779
2022-11-25T05:03:57.801Z,9.279926
2022-11-25T05:04:58.078Z,9.279977
2022-11-25T05:05:57.057Z,9.280017
2022-11-25T05:06:57.060Z,9.280050
2022-11-25T05:07:57.075Z,9.280065
2022-11-25T05:08:56.996Z,9.279919
2022-11-25T05:09:56.980Z,9.279892
2022-11-25T05:10:56.959Z,9.279940
2022-11-25T05:11:56.966Z,9.279940
2022-11-25T05:12:56.923Z,9.280004
2022-11-25T05:13:56.908Z,9.280113
2022-11-25T05:14:56.883Z,9.279945
2022-11-25T05:15:56.872Z,9.279918
2022-11-25T05:16:56.889Z,9.279916
2022-11-25T05:17:56.829Z,9.279869
2022-11-25T05:18:56.821Z,9.279841
2022-11-25T05:19:56.794Z,9.279847
2022-11-25T05:20:56.854Z,9.279783
2022-11-25T05:21:56.782Z,9.279711
2022-11-25T05:22:56.735Z,9.279834
2022-11-25T05:23:56.765Z,9.279882
2022-11-25T05:24:56.720Z,9.279874
2022-11-25T05:25:56.676Z,9.279930
2022-11-25T05:26:56.662Z,9.279894
2022-11-25T05:27:56.682Z,9.279842
2022-11-25T05:28:56.626Z,9.279862
2022-11-25T05:29:56.614Z,9.279811
2022-11-25T05:30:56.666Z,9.279806
2022-11-25T05:31:56.566Z,9.279867
2022-11-25T05:32:56.573Z,9.279875
2022-11-25T05:33:56.535Z,9.279860
2022-11-25T05:34:56.513Z,9.279888
2022-11-25T05:35:56.537Z,9.279898
2022-11-25T05:36:56.504Z,9.279924
2022-11-25T05:37:56.494Z,9.279946
2022-11-25T05:38:56.457Z,9.279923
2022-11-25T05:39:56.421Z,9.279890
2022-11-25T05:40:56.424Z,9.279900
2022-11-25T05:41:56.383Z,9.279962
2022-11-25T05:42:56.398Z,9.279955
2022-11-25T05:43:56.346Z,9.279939
2022-11-25T05:44:56.324Z,9.279955
2022-11-25T05:45:56.355Z,9.279882
2022-11-25T05:46:56.311Z,9.279886
2022-11-25T05:47:56.292Z,9.279848
2022-11-25T05:48:56.254Z,9.279865
2022-11-25T05:49:56.238Z,9.279931
2022-11-25T05:50:56.214Z,9.279924
2022-11-25T05:51:56.196Z,9.279873
2022-11-25T05:52:56.212Z,9.279865
2022-11-25T05:53:56.157Z,9.279892
2022-11-25T05:54:57.572Z,9.279918
2022-11-25T05:55:57.125Z,9.279893
2022-11-25T05:56:56.104Z,9.279863
2022-11-25T05:57:56.105Z,9.279892
2022-11-25T05:58:56.064Z,9.279860
2022-11-25T05:59:56.049Z,9.279949
2022-11-25T06:00:56.024Z,9.279809
2022-11-25T06:01:56.088Z,9.279952
2022-11-25T06:02:56.088Z,9.279800
2022-11-25T06:03:55.985Z,9.279829
2022-11-25T06:04:55.945Z,9.279906
2022-11-25T06:05:55.935Z,9.279850
2022-11-25T06:06:55.906Z,9.279901
2022-11-25T06:07:55.981Z,9.279917
2022-11-25T06:08:56.868Z,9.279880
2022-11-25T06:09:58.798Z,9.280027
2022-11-25T06:10:57.845Z,9.279888
2022-11-25T06:11:55.814Z,9.279817
2022-11-25T06:12:55.828Z,9.279885
2022-11-25T06:13:55.788Z,9.279838
2022-11-25T06:14:55.769Z,9.279855
2022-11-25T06:15:55.809Z,9.279858
2022-11-25T06:16:55.739Z,9.279882
2022-11-25T06:17:55.735Z,9.279919
2022-11-25T06:18:55.689Z,9.279862
2022-11-25T06:19:55.673Z,9.279955
2022-11-25T06:20:55.653Z,9.279850
2022-11-25T06:21:55.641Z,9.279818
2022-11-25T06:22:55.641Z,9.279896
2022-11-25T06:23:55.595Z,9.279854
2022-11-25T06:25:01.864Z,9.279896
2022-11-25T06:25:57.570Z,9.279906
2022-11-25T06:26:55.540Z,9.279837
2022-11-25T06:28:12.435Z,9.279890
2022-11-25T06:28:57.500Z,9.279617
2022-11-25T06:29:55.483Z,9.279810
2022-11-25T06:30:55.520Z,9.279928
2022-11-25T06:31:55.467Z,9.279805
2022-11-25T06:32:55.465Z,9.279914
2022-11-25T06:33:55.440Z,9.279964
2022-11-25T06:34:55.400Z,9.279881
2022-11-25T06:35:55.422Z,9.279811
2022-11-25T06:36:55.360Z,9.279866
2022-11-25T06:37:55.380Z,9.279822
2022-11-25T06:38:55.322Z,9.279815
2022-11-25T06:39:55.297Z,9.279862
2022-11-25T06:40:59.170Z,9.279717
2022-11-25T06:41:57.263Z,9.279655
2022-11-25T06:42:55.279Z,9.279647
2022-11-25T06:43:55.242Z,9.279798
2022-11-25T06:44:55.216Z,9.280004
2022-11-25T06:45:55.222Z,9.279879
2022-11-25T06:46:55.217Z,9.279812
2022-11-25T06:47:55.196Z,9.280005
2022-11-25T06:48:55.161Z,9.279944
2022-11-25T06:49:55.122Z,9.279931
2022-11-25T06:50:55.111Z,9.280073
2022-11-25T06:51:55.097Z,9.279988
2022-11-25T06:52:55.109Z,9.279988
2022-11-25T06:53:55.087Z,9.279982
2022-11-25T06:54:55.061Z,9.280078
2022-11-25T06:55:55.029Z,9.280081
2022-11-25T06:56:54.998Z,9.280063
2022-11-25T06:58:08.451Z,9.279894
2022-11-25T06:58:56.962Z,9.279660
2022-11-25T06:59:54.955Z,9.279888
2022-11-25T07:00:54.985Z,9.279942
2022-11-25T07:01:55.002Z,9.279838
2022-11-25T07:02:54.987Z,9.279995
2022-11-25T07:03:54.889Z,9.280003
2022-11-25T07:04:54.875Z,9.279910
2022-11-25T07:05:54.831Z,9.280104
2022-11-25T07:06:55.827Z,9.279995
2022-11-25T07:07:54.873Z,9.279862
2022-11-25T07:08:54.777Z,9.279838
2022-11-25T07:09:54.762Z,9.279852
2022-11-25T07:10:54.732Z,9.280032
2022-11-25T07:11:54.726Z,9.279979
2022-11-25T07:12:54.725Z,9.280010
2022-11-25T07:13:54.700Z,9.279943
2022-11-25T07:14:54.659Z,9.279866
2022-11-25T07:15:54.691Z,9.279872
2022-11-25T07:16:54.630Z,9.279868
2022-11-25T07:17:54.650Z,9.279867
2022-11-25T07:18:54.594Z,9.279982
2022-11-25T07:19:54.583Z,9.280011
2022-11-25T07:20:54.565Z,9.279947
2022-11-25T07:21:54.560Z,9.279968
2022-11-25T07:22:54.541Z,9.279944
2022-11-25T07:23:54.497Z,9.280042
2022-11-25T07:24:54.482Z,9.279975
2022-11-25T07:25:54.467Z,9.280054
2022-11-25T07:26:54.472Z,9.280046
2022-11-25T07:27:54.457Z,9.279900
2022-11-25T07:28:54.436Z,9.279909
2022-11-25T07:30:29.180Z,9.279629
2022-11-25T07:31:27.085Z,9.279699
2022-11-25T07:31:56.357Z,9.279834
2022-11-25T07:32:54.383Z,9.279847
2022-11-25T07:33:54.337Z,9.279737
2022-11-25T07:34:54.463Z,9.279844
2022-11-25T07:35:54.278Z,9.280070
2022-11-25T07:36:56.486Z,9.279961
2022-11-25T07:37:54.291Z,9.280105
2022-11-25T07:38:54.276Z,9.280211
2022-11-25T07:39:54.205Z,9.280181
2022-11-25T07:40:54.233Z,9.280088
2022-11-25T07:41:54.187Z,9.279886
2022-11-25T07:42:54.193Z,9.279810
2022-11-25T07:43:54.137Z,9.279520
2022-11-25T07:44:54.185Z,9.279677
2022-11-25T07:45:54.174Z,9.279733
2022-11-25T07:46:54.182Z,9.279885
2022-11-25T07:47:54.084Z,9.279889
2022-11-25T07:48:54.034Z,9.280086
2022-11-25T07:49:54.034Z,9.279972
2022-11-25T07:50:53.997Z,9.280146
2022-11-25T07:51:54.001Z,9.280061
2022-11-25T07:52:53.991Z,9.280074
2022-11-25T07:53:53.943Z,9.280213
2022-11-25T07:54:53.929Z,9.280043
2022-11-25T07:55:53.907Z,9.279946
2022-11-25T07:56:53.911Z,9.280025
2022-11-25T07:57:53.890Z,9.279951
2022-11-25T07:58:53.845Z,9.279947
2022-11-25T07:59:53.829Z,9.279999
2022-11-25T08:00:53.812Z,9.279837
2022-11-25T08:01:54.008Z,9.279993
2022-11-25T08:02:53.909Z,9.280053
2022-11-25T08:03:53.762Z,9.279821
2022-11-25T08:04:53.736Z,9.279753
2022-11-25T08:05:53.728Z,9.279943
2022-11-25T08:06:53.700Z,9.280021
2022-11-25T08:07:53.778Z,9.279995
2022-11-25T08:08:53.676Z,9.279971
2022-11-25T08:09:53.690Z,9.279931
2022-11-25T08:10:53.632Z,9.279894
2022-11-25T08:11:53.626Z,9.279840
2022-11-25T08:12:53.633Z,9.279824
2022-11-25T08:13:53.585Z,9.279938
2022-11-25T08:14:53.556Z,9.280066
2022-11-25T08:15:53.632Z,9.279982
2022-11-25T08:16:53.519Z,9.279814
2022-11-25T08:17:53.524Z,9.279838
2022-11-25T08:18:53.481Z,9.279886
2022-11-25T08:19:53.510Z,9.279806
2022-11-25T08:20:53.447Z,9.279796
2022-11-25T08:21:53.430Z,9.279893
2022-11-25T08:22:53.410Z,9.279966
2022-11-25T08:23:53.411Z,9.280034
2022-11-25T08:24:53.409Z,9.279952
2022-11-25T08:25:53.368Z,9.279933
2022-11-25T08:26:53.336Z,9.279889
2022-11-25T08:27:53.350Z,9.279790
2022-11-25T08:28:53.299Z,9.279853
2022-11-25T08:29:53.284Z,9.279835
2022-11-25T08:30:53.293Z,9.279852
2022-11-25T08:31:53.248Z,9.279778
2022-11-25T08:32:53.237Z,9.279808
2022-11-25T08:33:54.238Z,9.279857
2022-11-25T08:34:53.209Z,9.279829
2022-11-25T08:35:53.173Z,9.279955
2022-11-25T08:36:53.156Z,9.279921
2022-11-25T08:37:53.139Z,9.279841
2022-11-25T08:38:53.146Z,9.279868
2022-11-25T08:39:53.868Z,9.279876
2022-11-25T08:40:54.091Z,9.279862
2022-11-25T08:41:53.072Z,9.279881
2022-11-25T08:42:53.052Z,9.279786
2022-11-25T08:43:53.057Z,9.279839
2022-11-25T08:44:53.015Z,9.279876
2022-11-25T08:45:53.007Z,9.279870
2022-11-25T08:46:53.031Z,9.279932
2022-11-25T08:47:52.968Z,9.279870
2022-11-25T08:48:52.975Z,9.279851
2022-11-25T08:49:52.932Z,9.279802
2022-11-25T08:50:52.912Z,9.279810
2022-11-25T08:51:52.903Z,9.279859
2022-11-25T08:52:52.883Z,9.279780
2022-11-25T08:53:52.891Z,9.279709
2022-11-25T08:54:52.838Z,9.279750
2022-11-25T08:55:52.818Z,9.279776
2022-11-25T08:56:52.805Z,9.279824
2022-11-25T08:57:52.791Z,9.279865
2022-11-25T08:58:52.800Z,9.279820
2022-11-25T08:59:52.750Z,9.279875
2022-11-25T09:00:52.734Z,9.279883
2022-11-25T09:01:52.869Z,9.279826
2022-11-25T09:02:52.756Z,9.279836
2022-11-25T09:03:52.705Z,9.279827
2022-11-25T09:04:52.664Z,9.279829
2022-11-25T09:05:52.650Z,9.279832
2022-11-25T09:06:52.633Z,9.279802
2022-11-25T09:07:52.717Z,9.279769
2022-11-25T09:08:52.616Z,9.279891
2022-11-25T09:09:52.586Z,9.279887
2022-11-25T09:10:52.639Z,9.279911
2022-11-25T09:11:52.530Z,9.279801
2022-11-25T09:12:52.517Z,9.279799
2022-11-25T09:13:53.594Z,9.279855
2022-11-25T09:14:52.482Z,9.279717
2022-11-25T09:15:52.530Z,9.279795
2022-11-25T09:16:52.450Z,9.279848
2022-11-25T09:17:52.436Z,9.279933
2022-11-25T09:18:55.879Z,9.279889
2022-11-25T09:19:53.395Z,9.279932
2022-11-25T09:20:52.382Z,9.279789
2022-11-25T09:21:52.367Z,9.279774
2022-11-25T09:22:52.338Z,9.279816
2022-11-25T09:23:52.345Z,9.279853
2022-11-25T09:24:52.306Z,9.279920
2022-11-25T09:25:52.285Z,9.279948
2022-11-25T09:26:52.268Z,9.279928
2022-11-25T09:27:52.258Z,9.279936
2022-11-25T09:28:52.268Z,9.279962
2022-11-25T09:29:52.211Z,9.279955
2022-11-25T09:30:52.279Z,9.279926
2022-11-25T09:31:54.945Z,9.279906
2022-11-25T09:32:53.228Z,9.279911
2022-11-25T09:33:52.176Z,9.279903
2022-11-25T09:34:52.131Z,9.279881
2022-11-25T09:35:52.107Z,9.279928
2022-11-25T09:36:52.116Z,9.279822
2022-11-25T09:37:52.067Z,9.279852
2022-11-25T09:38:52.072Z,9.279864
2022-11-25T09:39:52.042Z,9.279862
2022-11-25T09:40:52.026Z,9.279881
2022-11-25T09:41:51.994Z,9.279840
2022-11-25T09:42:51.984Z,9.279890
2022-11-25T09:43:51.984Z,9.279913
2022-11-25T09:44:51.945Z,9.279808
2022-11-25T09:45:51.986Z,9.279898
2022-11-25T09:46:51.968Z,9.279730
2022-11-25T09:47:57.286Z,9.279913
2022-11-25T09:48:53.898Z,9.279869
2022-11-25T09:49:51.852Z,9.279953
2022-11-25T09:50:51.836Z,9.279985
2022-11-25T09:51:51.821Z,9.279958
2022-11-25T09:52:51.801Z,9.279868
2022-11-25T09:53:51.804Z,9.279863
2022-11-25T09:54:51.763Z,9.279842
2022-11-25T09:55:52.611Z,9.279877
2022-11-25T09:56:51.727Z,9.279829
2022-11-25T09:57:56.399Z,9.279879
2022-11-25T09:58:52.728Z,9.279883
2022-11-25T09:59:51.682Z,9.279924
2022-11-25T10:00:51.674Z,9.279998
2022-11-25T10:01:51.679Z,9.279935
2022-11-25T10:02:51.746Z,9.279902
2022-11-25T10:03:51.619Z,9.279910
2022-11-25T10:04:51.578Z,9.279844
2022-11-25T10:05:52.955Z,9.279849
2022-11-25T10:06:55.476Z,9.279815
2022-11-25T10:07:52.521Z,9.279871
2022-11-25T10:08:51.545Z,9.279814
2022-11-25T10:09:51.494Z,9.279866
2022-11-25T10:10:51.468Z,9.279831
2022-11-25T10:11:51.477Z,9.279839
2022-11-25T10:12:51.429Z,9.279887
2022-11-25T10:13:51.450Z,9.279900
2022-11-25T10:14:51.401Z,9.279876
2022-11-25T10:15:51.432Z,9.279776
2022-11-25T10:16:51.867Z,9.279944
2022-11-25T10:17:52.344Z,9.280043
2022-11-25T10:18:55.166Z,9.280004
2022-11-25T10:19:51.317Z,9.279841
2022-11-25T10:20:51.298Z,9.279961
2022-11-25T10:21:51.390Z,9.279969
2022-11-25T10:22:51.269Z,9.279998
2022-11-25T10:23:51.289Z,9.279823
2022-11-25T10:24:51.617Z,9.279907
2022-11-25T10:25:51.551Z,9.279906
2022-11-25T10:26:51.342Z,9.279976
2022-11-25T10:27:52.183Z,9.280028
2022-11-25T10:28:51.195Z,9.279911
2022-11-25T10:29:51.158Z,9.280013
2022-11-25T10:30:51.198Z,9.280022
2022-11-25T10:31:51.131Z,9.279844
2022-11-25T10:32:51.094Z,9.279872
2022-11-25T10:33:51.094Z,9.279926
2022-11-25T10:34:51.728Z,9.280068
2022-11-25T10:35:51.037Z,9.280023
2022-11-25T10:36:51.012Z,9.279955
2022-11-25T10:37:50.994Z,9.279829
2022-11-25T10:38:51.004Z,9.279955
2022-11-25T10:39:50.957Z,9.279901
2022-11-25T10:40:50.950Z,9.279890
2022-11-25T10:41:50.926Z,9.279910
2022-11-25T10:42:50.904Z,9.280013
2022-11-25T10:43:50.916Z,9.279973
2022-11-25T10:44:50.869Z,9.279891
2022-11-25T10:45:50.886Z,9.280025
2022-11-25T10:47:13.010Z,9.280011
2022-11-25T10:47:52.882Z,9.279940
2022-11-25T10:48:50.794Z,9.279975
2022-11-25T10:49:50.781Z,9.279934
2022-11-25T10:50:50.792Z,9.279888
2022-11-25T10:51:50.753Z,9.279958
2022-11-25T10:52:50.723Z,9.279888
2022-11-25T10:53:50.733Z,9.280048
2022-11-25T10:54:50.684Z,9.280041
2022-11-25T10:55:51.700Z,9.280047
2022-11-25T10:56:50.652Z,9.280039
2022-11-25T10:57:50.635Z,9.280077
2022-11-25T10:58:50.769Z,9.280196
2022-11-25T10:59:50.616Z,9.280066
2022-11-25T11:00:50.710Z,9.280024
2022-11-25T11:01:50.981Z,9.280124
2022-11-25T11:02:51.154Z,9.280086
2022-11-25T11:03:50.539Z,9.280080
2022-11-25T11:04:50.580Z,9.280119
2022-11-25T11:06:32.882Z,9.280087
2022-11-25T11:06:50.497Z,9.280040
2022-11-25T11:07:50.503Z,9.279960
2022-11-25T11:08:50.462Z,9.280050
2022-11-25T11:10:32.326Z,9.280048
2022-11-25T11:10:57.138Z,9.280071
2022-11-25T11:11:52.527Z,9.279963
2022-11-25T11:13:31.304Z,9.280002
2022-11-25T11:13:50.380Z,9.280104
2022-11-25T11:20:18.891Z,9.279923
2022-11-25T11:21:18.899Z,9.279934
2022-11-25T11:22:18.852Z,9.279956
2022-11-25T11:23:18.846Z,9.280076
2022-11-25T11:24:18.844Z,9.280017
2022-11-25T11:25:18.888Z,9.279999
2022-11-25T11:26:18.779Z,9.280077
2022-11-25T11:27:18.791Z,9.280084
2022-11-25T11:28:18.746Z,9.280053
2022-11-25T11:29:18.757Z,9.279914
2022-11-25T11:30:18.736Z,9.279857
2022-11-25T11:31:18.756Z,9.279961
2022-11-25T11:32:18.715Z,9.280068
2022-11-25T11:33:18.649Z,9.279892
2022-11-25T11:34:18.682Z,9.279932
2022-11-25T11:35:18.621Z,9.280041
2022-11-25T11:36:18.604Z,9.280181
2022-11-25T11:37:18.587Z,9.280072
2022-11-25T11:38:18.578Z,9.280050
2022-11-25T11:39:18.583Z,9.280001
2022-11-25T11:40:18.545Z,9.280035
2022-11-25T11:41:18.518Z,9.280015
2022-11-25T11:42:18.499Z,9.280015
2022-11-25T11:43:18.487Z,9.280088
2022-11-25T11:44:18.483Z,9.280096
2022-11-25T11:45:18.457Z,9.280027
2022-11-25T11:46:18.466Z,9.280017
2022-11-25T11:47:18.408Z,9.280100
2022-11-25T11:48:18.394Z,9.280071
2022-11-25T11:49:18.399Z,9.280064